Davison, MI

08:34 AM EDT 2015 martxoa ren 31 an (GMT -0400)
Burton - wxbeacon.com | | Change Station
CLOSE
Current Station
Personal Weather Stations
Location: Burton, MI
Elevation: 766 ft
Nearby Weather Stations

Elev 766 ft 43.03 °N, 83.59 °W | Updated 3 minutes ago

Elurra
Elurra
32.4 °F
Feels Like 32 °F
N
0.0
Haizea Aldagarria Haizea from IE
Gusts 0.0 mph

Gaur
High -- | Low -- °F
--% Chance of Precip.
Yesterday
High -- | Low -- °F
Precip. -- in
7:18 AM 7:58 PM
Waxing Gibbous, 86% visible
Presioa 29.78 in
Ikusgaitasuna 2.5 Miliak
Clouds Goraki estalia 700 ft
Estalia 1800 ft
Izozki haizeak 32 °F
Ihintzaren maila 31 °F
Afoinua 93%
Rainfall 0.13 in
Snow Depth Not available.
UV 0 out of 12
Pollen 1.60 out of 12
Air Quality Not available.
Flu Activity Not available.
SPECI KFNT 311223Z 05010KT 2 1/2SM -SN BR BKN007 OVC018 01/M01 A2978 RMK AO2 P0000 T00111006

More Conditions Fewer Conditions

Presioa 29.78 in
Ikusgaitasuna 2.5 Miliak
Clouds Goraki estalia 700 ft
Estalia 1800 ft
Izozki haizeak 32 °F
Ihintzaren maila 31 °F
Afoinua 93%
Rainfall 0.13 in
Snow Depth Not available.
UV 0 out of 12
Pollen 1.60 out of 12
Air Quality Not available.
Flu Activity Not available.
SPECI KFNT 311223Z 05010KT 2 1/2SM -SN BR BKN007 OVC018 01/M01 A2978 RMK AO2 P0000 T00111006

More Conditions Fewer Conditions

10-Day Weather Forecast

Almanac

Astronomy

Mar. 31, 2015 Rise Set
Actual Time
Civil Twilight
Nautical Twilight
Astronomical Twilight
Moon
Length Of Visible Light
Length of Day
Tomorrow will be .
, % of the Moon is Illuminated

Today's Extremes

State Highs State Lows

Community

WunderPhotos

Upload Photos

1,809,754 photos uploaded!

WunderBlogs® & News

Nearby

Air Quality

  Air Quality AQ Index Pollutant
Not available.

Snow Depth

Station Depth Elevation

Earthquake Activity

City Distance Mag. Time & Date
Minimum magnitude displayed is 2.5.

Coastal Water Temperatures

Lekua Tenperatura

Stations

Nearby Weather Stations

Station Location Temp Izozki haizeak Ihintzaren maila Afoinua Haizea Precip. Elev Eguneratuta Type